createdAt,value
2018-04-28T00:02:17.371Z,10.60
2018-04-28T00:04:45.406Z,10.60
2018-04-28T00:07:12.942Z,10.60
2018-04-28T00:09:41.311Z,10.60
2018-04-28T00:12:08.853Z,10.50
2018-04-28T00:14:36.377Z,10.50
2018-04-28T00:17:19.681Z,10.40
2018-04-28T00:19:50.955Z,10.40
2018-04-28T00:22:22.167Z,10.40
2018-04-28T00:24:52.932Z,10.30
2018-04-28T00:27:21.220Z,10.30
2018-04-28T00:32:47.329Z,10.30
2018-04-28T00:35:15.546Z,10.30
2018-04-28T00:37:50.496Z,10.20
2018-04-28T00:40:34.648Z,10.20
2018-04-28T00:43:02.981Z,10.20
2018-04-28T00:45:36.061Z,10.20
2018-04-28T00:48:17.049Z,10.20
2018-04-28T00:50:47.046Z,10.20
2018-04-28T00:53:16.328Z,10.30
2018-04-28T00:55:45.617Z,10.20
2018-04-28T00:58:19.081Z,10.30
2018-04-28T01:03:57.475Z,10.30
2018-04-28T01:06:25.007Z,10.40
2018-04-28T01:08:56.424Z,10.40
2018-04-28T01:11:29.921Z,10.30
2018-04-28T01:13:59.228Z,10.30
2018-04-28T01:16:27.516Z,10.30
2018-04-28T01:19:00.993Z,10.20
2018-04-28T01:21:35.155Z,10.20
2018-04-28T01:24:09.400Z,10.20
2018-04-28T01:30:07.448Z,10.10
2018-04-28T01:32:39.852Z,10.10
2018-04-28T01:35:08.111Z,10.10
2018-04-28T01:37:39.133Z,10.10
2018-04-28T01:40:11.616Z,10.10
2018-04-28T01:42:54.981Z,10.10
2018-04-28T01:48:23.489Z,10.10
2018-04-28T01:50:58.639Z,10.10
2018-04-28T01:53:26.913Z,10.10
2018-04-28T01:59:02.761Z,10.10
2018-04-28T02:01:33.815Z,10.00
2018-04-28T02:04:02.081Z,10.00
2018-04-28T02:09:52.661Z,9.90
2018-04-28T02:12:26.284Z,9.90
2018-04-28T02:15:00.841Z,9.70
2018-04-28T02:17:30.067Z,9.70
2018-04-28T02:20:03.171Z,9.70
2018-04-28T02:25:27.400Z,9.70
2018-04-28T02:31:14.852Z,9.70
2018-04-28T02:33:43.961Z,9.60
2018-04-28T02:36:18.185Z,9.60
2018-04-28T02:38:48.141Z,9.60
2018-04-28T02:41:23.252Z,9.60
2018-04-28T02:43:53.150Z,9.70
2018-04-28T02:49:29.953Z,9.70
2018-04-28T02:51:57.509Z,9.70
2018-04-28T02:54:42.527Z,9.70
2018-04-28T02:57:31.501Z,9.70
2018-04-28T02:59:59.076Z,9.70
2018-04-28T03:02:31.012Z,9.80
2018-04-28T03:04:59.909Z,9.80
2018-04-28T03:07:53.398Z,9.80
2018-04-28T03:10:26.960Z,9.80
2018-04-28T03:12:54.512Z,9.90
2018-04-28T03:15:22.044Z,9.90
2018-04-28T03:18:00.224Z,9.90
2018-04-28T03:20:34.249Z,9.90
2018-04-28T03:23:02.509Z,9.90
2018-04-28T03:25:44.313Z,10.00
2018-04-28T03:28:23.673Z,10.00
2018-04-28T03:30:51.996Z,10.10
2018-04-28T03:33:24.022Z,10.10
2018-04-28T03:35:51.561Z,10.10
2018-04-28T03:41:19.242Z,10.20
2018-04-28T03:43:47.593Z,10.20
2018-04-28T03:46:22.616Z,10.20
2018-04-28T03:52:07.036Z,10.20
2018-04-28T03:54:34.633Z,10.20
2018-04-28T03:57:08.132Z,10.30
2018-04-28T04:02:51.333Z,10.20
2018-04-28T04:08:25.152Z,10.20
2018-04-28T04:14:01.781Z,10.20
2018-04-28T04:16:42.117Z,10.20
2018-04-28T04:19:11.186Z,10.20
2018-04-28T04:21:55.937Z,10.30
2018-04-28T04:24:23.473Z,10.30
2018-04-28T04:30:12.463Z,10.40
2018-04-28T04:32:40.972Z,10.40
2018-04-28T04:35:32.400Z,10.50
2018-04-28T04:38:16.721Z,10.60
2018-04-28T04:44:08.860Z,11.80
2018-04-28T04:49:48.523Z,12.60
2018-04-28T04:52:28.776Z,12.60
2018-04-28T04:54:59.050Z,12.90
2018-04-28T04:57:35.210Z,13.40
2018-04-28T05:00:09.703Z,13.70
2018-04-28T05:05:54.953Z,15.30
2018-04-28T05:11:45.301Z,15.90
2018-04-28T05:20:33.151Z,17.10
2018-04-28T05:23:16.124Z,17.00
2018-04-28T05:25:51.121Z,17.00
2018-04-28T05:31:33.761Z,18.00
2018-04-28T05:34:17.134Z,18.00
2018-04-28T05:36:56.310Z,18.50
2018-04-28T05:45:56.369Z,19.60
2018-04-28T05:48:28.575Z,19.80
2018-04-28T05:51:04.843Z,19.70
2018-04-28T05:53:41.145Z,19.30
2018-04-28T05:56:15.145Z,18.30
2018-04-28T05:58:45.049Z,17.30
2018-04-28T06:04:26.991Z,16.20
2018-04-28T06:07:20.173Z,15.70
2018-04-28T06:09:53.153Z,15.10
2018-04-28T06:15:26.061Z,14.30
2018-04-28T06:20:56.117Z,14.20
2018-04-28T06:23:23.696Z,14.40
2018-04-28T06:25:52.045Z,15.00
2018-04-28T06:28:20.361Z,15.00
2018-04-28T06:30:48.392Z,15.30
2018-04-28T06:33:15.949Z,15.30
2018-04-28T06:35:43.520Z,15.00
2018-04-28T06:38:11.138Z,15.00
2018-04-28T06:40:38.665Z,15.50
2018-04-28T06:43:06.204Z,16.00
2018-04-28T06:45:33.785Z,16.00
2018-04-28T06:48:02.089Z,16.70
2018-04-28T06:50:30.418Z,17.40
2018-04-28T06:52:57.997Z,17.40
2018-04-28T06:55:25.525Z,18.00
2018-04-28T06:57:53.049Z,18.30
2018-04-28T07:00:22.016Z,18.30
2018-04-28T07:02:49.568Z,18.30
2018-04-28T07:05:17.113Z,18.30
2018-04-28T07:07:44.684Z,18.30
2018-04-28T07:10:12.213Z,18.20
2018-04-28T07:12:39.750Z,18.10
2018-04-28T07:15:08.093Z,17.90
2018-04-28T07:17:35.625Z,17.90
2018-04-28T07:20:03.177Z,17.90
2018-04-28T07:22:31.621Z,17.70
2018-04-28T07:24:59.144Z,17.70
2018-04-28T07:27:26.704Z,17.80
2018-04-28T07:29:55.052Z,17.50
2018-04-28T07:32:22.583Z,17.50
2018-04-28T07:34:50.119Z,17.70
2018-04-28T07:37:17.741Z,17.60
2018-04-28T07:39:45.273Z,17.60
2018-04-28T07:42:13.606Z,18.00
2018-04-28T07:44:41.173Z,18.00
2018-04-28T07:47:08.700Z,18.40
2018-04-28T07:49:36.261Z,18.50
2018-04-28T07:52:03.854Z,18.30
2018-04-28T07:54:32.145Z,18.30
2018-04-28T07:57:00.450Z,18.50
2018-04-28T07:59:28.906Z,18.80
2018-04-28T08:01:56.438Z,18.80
2018-04-28T08:04:24.893Z,18.90
2018-04-28T08:06:52.566Z,18.80
2018-04-28T08:09:20.861Z,18.70
2018-04-28T08:11:49.321Z,18.70
2018-04-28T08:14:16.900Z,18.70
2018-04-28T08:16:44.425Z,18.60
2018-04-28T08:19:11.957Z,18.40
2018-04-28T08:21:40.308Z,18.30
2018-04-28T08:24:07.848Z,18.30
2018-04-28T08:26:35.393Z,18.80
2018-04-28T08:29:03.767Z,19.00
2018-04-28T08:31:32.109Z,18.80
2018-04-28T08:33:59.645Z,18.80
2018-04-28T08:36:27.985Z,18.90
2018-04-28T08:38:55.517Z,18.90
2018-04-28T08:41:23.065Z,18.80
2018-04-28T08:43:51.414Z,19.00
2018-04-28T08:46:19.392Z,18.90
2018-04-28T08:48:46.934Z,18.90
2018-04-28T08:51:14.512Z,19.10
2018-04-28T08:53:42.048Z,19.00
2018-04-28T08:56:10.342Z,19.30
2018-04-28T08:58:38.690Z,19.70
2018-04-28T09:01:06.217Z,19.70
2018-04-28T09:03:33.751Z,19.80
2018-04-28T09:06:01.329Z,19.80
2018-04-28T09:08:28.865Z,20.00
2018-04-28T09:10:56.402Z,20.10
2018-04-28T09:13:23.993Z,19.70
2018-04-28T09:15:51.525Z,19.50
2018-04-28T09:18:19.485Z,19.60
2018-04-28T09:20:47.066Z,19.90
2018-04-28T09:23:15.373Z,19.70
2018-04-28T09:25:43.665Z,19.80
2018-04-28T09:28:11.279Z,19.80
2018-04-28T09:30:38.820Z,20.10
2018-04-28T09:33:06.452Z,20.20
2018-04-28T09:35:34.061Z,20.30
2018-04-28T09:38:01.601Z,20.40
2018-04-28T09:40:29.912Z,19.90
2018-04-28T09:42:57.485Z,19.90
2018-04-28T09:45:25.016Z,20.00
2018-04-28T09:47:52.553Z,20.10
2018-04-28T09:50:20.146Z,19.90
2018-04-28T09:52:47.673Z,19.90
2018-04-28T09:55:15.202Z,20.00
2018-04-28T10:00:57.147Z,20.50
2018-04-28T10:03:30.812Z,20.40
2018-04-28T10:05:58.372Z,20.70
2018-04-28T10:08:25.905Z,20.50
2018-04-28T10:10:53.528Z,19.90
2018-04-28T10:13:21.073Z,19.90
2018-04-28T10:15:50.289Z,20.50
2018-04-28T10:18:17.883Z,20.40
2018-04-28T10:20:45.465Z,20.70
2018-04-28T10:23:13.017Z,20.80
2018-04-28T10:25:40.718Z,20.30
2018-04-28T10:28:08.281Z,20.10
2018-04-28T10:30:35.819Z,20.10
2018-04-28T10:33:03.397Z,19.90
2018-04-28T10:35:31.184Z,19.80
2018-04-28T10:37:58.756Z,19.80
2018-04-28T10:40:26.328Z,20.10
2018-04-28T10:42:53.852Z,20.30
2018-04-28T10:45:21.382Z,20.80
2018-04-28T10:47:49.870Z,21.00
2018-04-28T10:50:17.407Z,20.80
2018-04-28T10:52:45.717Z,20.50
2018-04-28T10:55:13.296Z,20.50
2018-04-28T10:57:40.825Z,20.30
2018-04-28T11:00:08.355Z,20.40
2018-04-28T11:02:36.020Z,20.30
2018-04-28T11:05:03.544Z,20.10
2018-04-28T11:07:31.965Z,19.90
2018-04-28T11:09:59.593Z,19.90
2018-04-28T11:12:27.124Z,19.80
2018-04-28T11:14:54.665Z,19.60
2018-04-28T11:17:23.004Z,19.30
2018-04-28T11:19:50.605Z,19.30
2018-04-28T11:22:18.072Z,19.30
2018-04-28T11:24:45.692Z,19.10
2018-04-28T11:27:13.216Z,18.90
2018-04-28T11:29:41.531Z,18.40
2018-04-28T11:32:09.102Z,18.30
2018-04-28T11:34:36.704Z,18.30
2018-04-28T11:37:04.256Z,18.10
2018-04-28T11:39:31.829Z,18.10
2018-04-28T11:41:59.361Z,18.20
2018-04-28T11:44:26.885Z,18.30
2018-04-28T11:46:54.452Z,18.40
2018-04-28T11:49:21.976Z,18.40
2018-04-28T11:51:50.895Z,18.70
2018-04-28T11:54:20.255Z,18.80
2018-04-28T11:56:47.781Z,18.70
2018-04-28T11:59:16.171Z,18.20
2018-04-28T12:01:43.692Z,18.20
2018-04-28T12:04:11.240Z,18.20
2018-04-28T12:06:38.789Z,18.10
2018-04-28T12:09:06.405Z,18.00
2018-04-28T12:11:34.045Z,18.00
2018-04-28T12:14:01.578Z,18.10
2018-04-28T12:16:29.152Z,18.00
2018-04-28T12:18:56.686Z,18.10
2018-04-28T12:21:24.228Z,18.00
2018-04-28T12:23:51.908Z,18.10
2018-04-28T12:26:20.362Z,18.20
2018-04-28T12:28:48.682Z,18.40
2018-04-28T12:31:16.266Z,18.30
2018-04-28T12:33:43.805Z,18.50
2018-04-28T12:36:12.089Z,18.40
2018-04-28T12:38:40.427Z,18.40
2018-04-28T12:41:07.962Z,18.30
2018-04-28T12:43:35.488Z,18.70
2018-04-28T12:46:03.062Z,18.70
2018-04-28T12:48:30.591Z,18.70
2018-04-28T12:50:58.116Z,18.40
2018-04-28T12:53:25.693Z,18.30
2018-04-28T12:55:53.220Z,18.30
2018-04-28T12:58:20.886Z,18.10
2018-04-28T13:00:48.468Z,18.20
2018-04-28T13:03:16.043Z,18.40
2018-04-28T13:05:43.560Z,18.40
2018-04-28T13:08:11.905Z,18.40
2018-04-28T13:10:39.445Z,18.40
2018-04-28T13:13:06.973Z,18.50
2018-04-28T13:15:34.545Z,18.70
2018-04-28T13:18:02.075Z,18.90
2018-04-28T13:20:29.604Z,19.10
2018-04-28T13:22:58.040Z,19.10
2018-04-28T13:25:25.568Z,19.10
2018-04-28T13:27:53.865Z,18.90
2018-04-28T13:30:22.216Z,19.00
2018-04-28T13:32:50.664Z,19.00
2018-04-28T13:35:18.196Z,19.00
2018-04-28T13:37:46.637Z,19.10
2018-04-28T13:40:14.170Z,19.10
2018-04-28T13:42:42.468Z,19.20
2018-04-28T13:45:10.101Z,19.20
2018-04-28T13:47:37.648Z,18.90
2018-04-28T13:50:05.181Z,18.80
2018-04-28T13:52:32.756Z,19.00
2018-04-28T13:55:00.285Z,19.20
2018-04-28T13:57:27.945Z,19.30
2018-04-28T13:59:55.524Z,19.20
2018-04-28T14:02:23.092Z,19.30
2018-04-28T14:04:51.537Z,19.60
2018-04-28T14:07:21.302Z,19.60
2018-04-28T14:09:48.894Z,19.80
2018-04-28T14:12:16.424Z,19.80
2018-04-28T14:14:43.989Z,19.90
2018-04-28T14:17:11.522Z,20.00
2018-04-28T14:19:39.817Z,20.20
2018-04-28T14:22:08.460Z,20.30
2018-04-28T14:24:36.094Z,20.30
2018-04-28T14:27:03.694Z,20.40
2018-04-28T14:29:32.003Z,19.90
2018-04-28T14:31:59.528Z,19.90
2018-04-28T14:34:27.830Z,19.50
2018-04-28T14:36:55.414Z,19.50
2018-04-28T14:39:23.000Z,19.50
2018-04-28T14:41:50.498Z,19.20
2018-04-28T14:44:18.080Z,19.10
2018-04-28T14:46:46.525Z,19.10
2018-04-28T14:49:14.067Z,19.10
2018-04-28T14:51:41.768Z,19.00
2018-04-28T14:54:09.310Z,19.00
2018-04-28T14:56:37.617Z,18.70
2018-04-28T14:59:05.410Z,18.70
2018-04-28T15:01:33.000Z,18.80
2018-04-28T15:04:00.624Z,18.90
2018-04-28T15:06:29.003Z,19.00
2018-04-28T15:08:56.568Z,18.90
2018-04-28T15:11:25.051Z,19.00
2018-04-28T15:13:53.368Z,19.00
2018-04-28T15:16:21.148Z,19.00
2018-04-28T15:18:48.879Z,19.10
2018-04-28T15:21:16.525Z,19.10
2018-04-28T15:23:44.072Z,19.10
2018-04-28T15:26:12.451Z,18.80
2018-04-28T15:28:40.838Z,18.80
2018-04-28T15:31:08.538Z,18.70
2018-04-28T15:33:36.106Z,18.70
2018-04-28T15:36:03.713Z,18.50
2018-04-28T15:38:31.296Z,18.40
2018-04-28T15:40:58.856Z,18.30
2018-04-28T15:43:26.474Z,18.30
2018-04-28T15:45:54.049Z,18.30
2018-04-28T15:48:23.494Z,18.30
2018-04-28T15:50:51.089Z,18.30
2018-04-28T15:53:18.737Z,18.30
2018-04-28T15:55:46.332Z,18.20
2018-04-28T16:00:48.011Z,18.20
2018-04-28T16:03:15.654Z,18.10
2018-04-28T16:05:43.975Z,18.10
2018-04-28T16:08:11.522Z,18.10
2018-04-28T16:10:39.200Z,18.00
2018-04-28T16:13:07.497Z,18.00
2018-04-28T16:15:35.031Z,18.00
2018-04-28T16:18:02.805Z,18.00
2018-04-28T16:20:30.385Z,17.90
2018-04-28T16:22:57.917Z,17.80
2018-04-28T16:25:25.578Z,17.70
2018-04-28T16:27:53.724Z,17.80
2018-04-28T16:30:22.222Z,17.60
2018-04-28T16:32:50.662Z,17.60
2018-04-28T16:35:18.212Z,17.60
2018-04-28T16:37:45.792Z,17.60
2018-04-28T16:40:13.472Z,17.40
2018-04-28T16:42:41.006Z,17.30
2018-04-28T16:45:08.536Z,17.20
2018-04-28T16:47:36.125Z,17.10
2018-04-28T16:50:03.662Z,17.20
2018-04-28T16:52:31.214Z,17.20
2018-04-28T16:54:58.797Z,17.20
2018-04-28T16:57:26.325Z,17.20
2018-04-28T16:59:55.549Z,17.20
2018-04-28T17:02:23.156Z,17.20
2018-04-28T17:04:50.718Z,17.20
2018-04-28T17:07:18.309Z,17.30
2018-04-28T17:09:45.961Z,17.30
2018-04-28T17:12:13.497Z,17.20
2018-04-28T17:14:41.795Z,17.10
2018-04-28T17:17:10.143Z,17.10
2018-04-28T17:19:37.789Z,17.10
2018-04-28T17:22:05.367Z,17.00
2018-04-28T17:24:33.035Z,17.00
2018-04-28T17:27:00.575Z,17.00
2018-04-28T17:29:28.955Z,17.00
2018-04-28T17:31:57.318Z,16.90
2018-04-28T17:34:25.689Z,16.90
2018-04-28T17:36:53.216Z,16.90
2018-04-28T17:39:21.580Z,16.70
2018-04-28T17:41:49.194Z,16.70
2018-04-28T17:44:16.853Z,16.70
2018-04-28T17:46:44.579Z,16.60
2018-04-28T17:49:12.175Z,16.60
2018-04-28T17:51:39.781Z,16.60
2018-04-28T17:54:07.373Z,16.60
2018-04-28T17:56:35.020Z,16.50
2018-04-28T17:59:02.679Z,16.50
2018-04-28T18:01:31.030Z,16.40
2018-04-28T18:03:58.571Z,16.40
2018-04-28T18:06:26.106Z,16.40
2018-04-28T18:08:54.463Z,16.30
2018-04-28T18:11:21.996Z,16.30
2018-04-28T18:13:49.552Z,16.30
2018-04-28T18:16:17.172Z,16.30
2018-04-28T18:18:44.730Z,16.40
2018-04-28T18:21:12.266Z,16.30
2018-04-28T18:23:39.912Z,16.30
2018-04-28T18:26:07.551Z,16.20
2018-04-28T18:28:35.151Z,16.10
2018-04-28T18:31:02.789Z,16.10
2018-04-28T18:33:30.347Z,16.10
2018-04-28T18:35:57.922Z,16.00
2018-04-28T18:38:26.957Z,15.90
2018-04-28T18:40:54.601Z,15.80
2018-04-28T18:43:22.144Z,15.70
2018-04-28T18:45:49.771Z,15.70
2018-04-28T18:48:17.421Z,15.50
2018-04-28T18:50:45.148Z,15.40
2018-04-28T18:53:12.740Z,15.30
2018-04-28T18:55:41.260Z,15.20
2018-04-28T18:58:08.847Z,15.20
2018-04-28T19:00:36.674Z,15.10
2018-04-28T19:03:04.482Z,15.10
2018-04-28T19:05:32.113Z,15.00
2018-04-28T19:08:00.527Z,15.00
2018-04-28T19:10:28.144Z,14.90
2018-04-28T19:12:57.275Z,14.90
2018-04-28T19:15:24.914Z,14.90
2018-04-28T19:17:52.778Z,14.80
2018-04-28T19:20:20.729Z,14.80
2018-04-28T19:22:49.248Z,14.70
2018-04-28T19:25:16.950Z,14.70
2018-04-28T19:27:44.954Z,14.70
2018-04-28T19:30:12.786Z,14.70
2018-04-28T19:32:40.353Z,14.70
2018-04-28T19:35:07.999Z,14.70
2018-04-28T19:37:36.534Z,14.70
2018-04-28T19:40:04.101Z,14.70
2018-04-28T19:42:31.691Z,14.70
2018-04-28T19:44:59.261Z,14.70
2018-04-28T19:47:26.793Z,14.70
2018-04-28T19:49:54.436Z,14.70
2018-04-28T19:52:22.123Z,14.80
2018-04-28T19:54:50.425Z,14.70
2018-04-28T19:57:18.793Z,14.70
2018-04-28T19:59:46.416Z,14.70
2018-04-28T20:02:13.946Z,14.70
2018-04-28T20:04:42.257Z,14.70
2018-04-28T20:07:09.963Z,14.70
2018-04-28T20:09:37.499Z,14.70
2018-04-28T20:12:05.021Z,14.60
2018-04-28T20:14:32.617Z,14.60
2018-04-28T20:17:00.917Z,14.60
2018-04-28T20:19:29.236Z,14.60
2018-04-28T20:22:08.795Z,14.60
2018-04-28T20:24:48.446Z,14.60
2018-04-28T20:27:16.121Z,14.60
2018-04-28T20:29:43.653Z,14.60
2018-04-28T20:32:11.942Z,14.50
2018-04-28T20:34:40.273Z,14.50
2018-04-28T20:37:07.829Z,14.50
2018-04-28T20:39:35.365Z,14.50
2018-04-28T20:42:02.982Z,14.50
2018-04-28T20:44:30.502Z,14.40
2018-04-28T20:46:58.033Z,14.40
2018-04-28T20:49:25.704Z,14.40
2018-04-28T20:51:53.245Z,14.40
2018-04-28T20:54:20.773Z,14.40
2018-04-28T20:56:48.502Z,14.30
2018-04-28T20:59:16.041Z,14.30
2018-04-28T21:01:44.332Z,14.30
2018-04-28T21:04:12.686Z,14.20
2018-04-28T21:06:40.254Z,14.20
2018-04-28T21:09:07.843Z,14.20
2018-04-28T21:11:35.432Z,14.20
2018-04-28T21:14:02.961Z,14.20
2018-04-28T21:16:30.489Z,14.10
2018-04-28T21:18:58.851Z,14.00
2018-04-28T21:21:27.312Z,14.00
2018-04-28T21:23:54.837Z,13.90
2018-04-28T21:26:22.420Z,13.90
2018-04-28T21:28:49.948Z,14.00
2018-04-28T21:31:17.530Z,14.00
2018-04-28T21:33:45.092Z,14.00
2018-04-28T21:36:12.616Z,13.90
2018-04-28T21:38:40.150Z,13.90
2018-04-28T21:41:07.733Z,13.90
2018-04-28T21:43:36.033Z,13.80
2018-04-28T21:46:03.573Z,13.80
2018-04-28T21:48:31.148Z,13.90
2018-04-28T21:50:58.681Z,13.90
2018-04-28T21:53:26.208Z,13.90
2018-04-28T21:55:54.569Z,13.90
2018-04-28T21:58:22.105Z,13.90
2018-04-28T22:00:49.635Z,13.90
2018-04-28T22:03:17.973Z,13.90
2018-04-28T22:05:45.501Z,13.90
2018-04-28T22:08:13.797Z,13.90
2018-04-28T22:10:41.364Z,13.90
2018-04-28T22:13:09.657Z,13.90
2018-04-28T22:15:37.181Z,13.90
2018-04-28T22:18:04.757Z,13.80
2018-04-28T22:20:32.289Z,13.80
2018-04-28T22:22:59.827Z,13.70
2018-04-28T22:25:28.469Z,13.60
2018-04-28T22:27:56.008Z,13.50
2018-04-28T22:30:23.541Z,13.50
2018-04-28T22:32:51.119Z,13.60
2018-04-28T22:35:18.665Z,13.60
2018-04-28T22:37:46.206Z,13.70
2018-04-28T22:40:13.776Z,13.70
2018-04-28T22:42:41.305Z,13.70
2018-04-28T22:45:08.836Z,13.70
2018-04-28T22:47:36.413Z,13.70
2018-04-28T22:50:03.937Z,13.60
2018-04-28T22:52:32.235Z,13.50
2018-04-28T22:54:59.922Z,13.60
2018-04-28T22:57:27.810Z,13.60
2018-04-28T22:59:55.351Z,13.60
2018-04-28T23:02:23.721Z,13.50
2018-04-28T23:04:51.255Z,13.50
2018-04-28T23:07:18.800Z,13.50
2018-04-28T23:09:46.478Z,13.50
2018-04-28T23:12:14.018Z,13.50
2018-04-28T23:14:42.313Z,13.50
2018-04-28T23:17:10.740Z,13.40
2018-04-28T23:19:38.307Z,13.40
2018-04-28T23:22:05.880Z,13.40
2018-04-28T23:24:33.557Z,13.30
2018-04-28T23:27:01.097Z,13.30
2018-04-28T23:29:29.394Z,13.40
2018-04-28T23:31:57.902Z,13.40
2018-04-28T23:34:25.466Z,13.40
2018-04-28T23:36:52.987Z,13.30
2018-04-28T23:39:20.569Z,13.20
2018-04-28T23:41:48.105Z,13.20
2018-04-28T23:44:15.654Z,13.10
2018-04-28T23:46:43.340Z,13.10
2018-04-28T23:49:10.900Z,13.00
2018-04-28T23:51:38.436Z,13.10
2018-04-28T23:54:06.781Z,13.20
2018-04-28T23:56:34.312Z,13.10
2018-04-28T23:59:01.881Z,13.20
